Time;durP1;ratioP1;P1;durP2;ratioP2;P2;SDS_P1;SDS_P2;PMS_P1;PMS_P2;Temp;Humidity;BMP_temperature;BMP_pressure;BME280_temperature;BME280_humidity;BME280_pressure;Samples;Min_cycle;Max_cycle;Signal;HPM_P1;HPM_P2
2023/04/08 00:01:35;;;;;;;22.75;16.55;;;;;;;;;;5039198;28;20119;-59
2023/04/08 00:04:01;;;;;;;24.23;17.45;;;;;;;;;;5073707;28;20023;-58
2023/04/08 00:06:27;;;;;;;26.83;18.02;;;;;;;;;;5073670;28;20039;-58
2023/04/08 00:08:52;;;;;;;29.13;21.35;;;;;;;;;;5073904;28;20037;-59
2023/04/08 00:11:17;;;;;;;20.02;14.73;;;;;;;;;;5073364;28;20024;-58
2023/04/08 00:13:43;;;;;;;23.70;15.82;;;;;;;;;;5073909;28;20035;-58
2023/04/08 00:16:08;;;;;;;23.27;16.70;;;;;;;;;;5073875;28;20389;-58
2023/04/08 00:18:33;;;;;;;21.55;16.42;;;;;;;;;;5073479;28;20025;-58
2023/04/08 00:20:59;;;;;;;22.65;15.88;;;;;;;;;;5073515;28;20025;-59
2023/04/08 00:23:24;;;;;;;24.30;16.52;;;;;;;;;;5077946;28;20035;-58
2023/04/08 00:25:50;;;;;;;22.50;15.65;;;;;;;;;;5078228;28;20016;-59
2023/04/08 00:28:15;;;;;;;23.90;15.88;;;;;;;;;;5077594;28;20394;-59
2023/04/08 00:30:41;;;;;;;19.92;14.73;;;;;;;;;;5059581;28;20040;-58
2023/04/08 00:33:07;;;;;;;20.25;14.82;;;;;;;;;;5059567;28;20382;-59
2023/04/08 00:35:34;;;;;;;21.23;14.25;;;;;;;;;;5059520;28;20033;-58
2023/04/08 00:38:00;;;;;;;22.80;15.63;;;;;;;;;;5059466;28;20023;-59
2023/04/08 00:40:25;;;;;;;18.60;15.00;;;;;;;;;;5077672;28;20033;-59
2023/04/08 00:42:51;;;;;;;20.02;14.98;;;;;;;;;;5077363;28;20037;-58
2023/04/08 00:45:16;;;;;;;16.10;11.57;;;;;;;;;;5077835;28;20016;-58
2023/04/08 00:47:42;;;;;;;14.50;12.57;;;;;;;;;;5077260;28;20367;-58
2023/04/08 00:50:09;;;;;;;19.45;14.18;;;;;;;;;;5077138;28;20032;-61
2023/04/08 00:52:35;;;;;;;19.90;14.32;;;;;;;;;;5059239;28;20146;-61
2023/04/08 00:55:00;;;;;;;16.80;13.63;;;;;;;;;;5077407;28;20032;-53
2023/04/08 00:57:26;;;;;;;15.15;13.00;;;;;;;;;;5077284;28;20027;-53
2023/04/08 00:59:52;;;;;;;14.90;13.32;;;;;;;;;;5077300;28;20052;-53
2023/04/08 01:02:29;;;;;;;15.02;13.18;;;;;;;;;;5076936;28;20107;-53
2023/04/08 01:05:15;;;;;;;15.55;13.23;;;;;;;;;;5076878;28;20390;-53
2023/04/08 01:07:43;;;;;;;17.75;14.00;;;;;;;;;;5041774;28;20084;-53
2023/04/08 01:10:09;;;;;;;14.43;12.32;;;;;;;;;;5076703;28;20382;-53
2023/04/08 01:12:39;;;;;;;14.55;13.05;;;;;;;;;;5076665;28;20033;-54
2023/04/08 01:15:05;;;;;;;15.02;13.13;;;;;;;;;;5058822;28;20119;-62
2023/04/08 01:17:32;;;;;;;15.32;13.23;;;;;;;;;;5058788;28;20025;-53
2023/04/08 01:20:01;;;;;;;15.75;13.82;;;;;;;;;;5076617;28;20017;-53
2023/04/08 01:22:30;;;;;;;14.80;12.45;;;;;;;;;;5076821;28;20029;-53
2023/04/08 01:25:07;;;;;;;15.85;13.07;;;;;;;;;;5076814;28;20029;-53
2023/04/08 01:27:34;;;;;;;14.15;12.15;;;;;;;;;;5058545;28;20020;-53
2023/04/08 01:30:02;;;;;;;14.32;12.73;;;;;;;;;;5076383;28;20035;-53
2023/04/08 01:32:30;;;;;;;15.27;12.63;;;;;;;;;;5076324;28;20028;-54
2023/04/08 01:34:56;;;;;;;15.38;13.52;;;;;;;;;;5058422;28;20481;-53
2023/04/08 01:37:22;;;;;;;16.80;13.80;;;;;;;;;;5058551;28;20056;-54
2023/04/08 01:39:52;;;;;;;15.90;13.90;;;;;;;;;;5076838;28;20024;-54
2023/04/08 01:42:19;;;;;;;18.13;14.10;;;;;;;;;;5058296;28;20074;-53
2023/04/08 01:44:45;;;;;;;16.08;13.38;;;;;;;;;;5076494;28;20112;-54
2023/04/08 01:47:12;;;;;;;17.67;14.40;;;;;;;;;;5058252;28;20104;-53
2023/04/08 01:49:38;;;;;;;14.65;12.73;;;;;;;;;;5058537;28;20522;-53
2023/04/08 01:52:04;;;;;;;14.40;12.20;;;;;;;;;;5075980;28;20123;-53
2023/04/08 01:54:29;;;;;;;17.33;14.07;;;;;;;;;;5076025;28;20112;-53
2023/04/08 01:56:56;;;;;;;17.95;14.75;;;;;;;;;;5076280;28;20477;-53
2023/04/08 01:59:23;;;;;;;18.98;15.43;;;;;;;;;;5058019;28;20066;-53
2023/04/08 02:01:49;;;;;;;18.40;13.98;;;;;;;;;;5057966;28;20040;-53
2023/04/08 02:04:14;;;;;;;16.83;13.60;;;;;;;;;;5058228;28;20024;-53
2023/04/08 02:06:40;;;;;;;14.85;13.25;;;;;;;;;;5075760;28;20048;-53
2023/04/08 02:09:06;;;;;;;16.83;12.90;;;;;;;;;;5075986;28;20103;-53
2023/04/08 02:11:31;;;;;;;17.60;13.27;;;;;;;;;;5075675;28;20389;-53
2023/04/08 02:13:57;;;;;;;15.63;13.82;;;;;;;;;;5075640;28;20039;-53
2023/04/08 02:16:27;;;;;;;17.65;13.82;;;;;;;;;;5075845;28;20474;-53
2023/04/08 02:18:55;;;;;;;20.25;15.82;;;;;;;;;;5075861;28;20025;-53
2023/04/08 02:21:25;;;;;;;17.40;13.82;;;;;;;;;;5057604;28;20040;-53
2023/04/08 02:23:52;;;;;;;16.52;12.52;;;;;;;;;;5057913;28;20086;-54
2023/04/08 02:26:19;;;;;;;16.35;12.63;;;;;;;;;;5075653;28;20089;-53
2023/04/08 02:28:47;;;;;;;13.93;11.35;;;;;;;;;;5057634;28;20028;-53
2023/04/08 02:31:12;;;;;;;13.10;11.75;;;;;;;;;;5057283;28;20028;-53
2023/04/08 02:33:43;;;;;;;;;;;;;;;;;;5057747;28;20032;-53
2023/04/08 02:36:09;;;;;;;13.95;11.95;;;;;;;;;;5040720;28;19923;-54
2023/04/08 02:38:34;;;;;;;14.25;11.48;;;;;;;;;;5075154;28;20047;-54
2023/04/08 02:41:00;;;;;;;15.00;11.68;;;;;;;;;;5040602;28;20024;-53
2023/04/08 02:43:33;;;;;;;14.20;11.90;;;;;;;;;;5057671;28;20025;-54
2023/04/08 02:46:03;;;;;;;15.85;12.25;;;;;;;;;;5074943;28;20036;-53
2023/04/08 02:48:29;;;;;;;18.15;13.57;;;;;;;;;;5056976;28;20045;-53
2023/04/08 02:50:55;;;;;;;16.27;13.00;;;;;;;;;;5074798;28;20071;-54
2023/04/08 02:53:21;;;;;;;17.23;13.60;;;;;;;;;;5075140;28;20052;-53
2023/04/08 02:55:46;;;;;;;18.25;14.15;;;;;;;;;;5056854;28;20016;-54
2023/04/08 02:58:11;;;;;;;13.82;12.00;;;;;;;;;;5075016;28;20036;-53
2023/04/08 03:00:38;;;;;;;17.92;14.68;;;;;;;;;;5074990;28;20036;-54
2023/04/08 03:03:04;;;;;;;17.73;14.52;;;;;;;;;;5074898;28;20036;-54
2023/04/08 03:05:29;;;;;;;19.23;14.80;;;;;;;;;;5074900;28;20020;-54
2023/04/08 03:07:55;;;;;;;17.83;14.73;;;;;;;;;;5074840;28;20029;-54
2023/04/08 03:10:20;;;;;;;16.60;14.10;;;;;;;;;;5074422;28;20097;-54
2023/04/08 03:12:45;;;;;;;17.45;14.15;;;;;;;;;;5074328;28;20433;-54
2023/04/08 03:15:10;;;;;;;17.23;12.82;;;;;;;;;;5074401;28;20103;-54
2023/04/08 03:17:36;;;;;;;16.45;13.90;;;;;;;;;;5074673;28;20025;-54
2023/04/08 03:20:03;;;;;;;17.55;13.95;;;;;;;;;;5056606;28;20470;-54
2023/04/08 03:22:30;;;;;;;19.27;13.75;;;;;;;;;;5083356;23;20524;-61
2023/04/08 03:24:55;;;;;;;17.20;14.70;;;;;;;;;;5074828;28;20031;-61
2023/04/08 03:27:20;;;;;;;17.52;13.32;;;;;;;;;;5056879;28;20036;-61
2023/04/08 03:29:46;;;;;;;19.15;14.20;;;;;;;;;;5074207;28;20035;-61
2023/04/08 03:32:12;;;;;;;18.30;14.25;;;;;;;;;;5056147;28;20059;-61
2023/04/08 03:34:37;;;;;;;17.38;14.60;;;;;;;;;;5056149;28;20036;-61
2023/04/08 03:37:03;;;;;;;18.10;13.82;;;;;;;;;;5074293;28;20064;-61
2023/04/08 03:39:29;;;;;;;18.42;15.52;;;;;;;;;;5074313;28;20478;-61
2023/04/08 03:41:55;;;;;;;19.98;14.63;;;;;;;;;;5056156;28;20561;-61
2023/04/08 03:44:20;;;;;;;17.77;13.93;;;;;;;;;;5073943;28;20364;-61
2023/04/08 03:46:45;;;;;;;17.05;14.30;;;;;;;;;;5074513;28;20023;-61
2023/04/08 03:49:10;;;;;;;14.35;12.02;;;;;;;;;;5073883;28;20470;-61
2023/04/08 03:51:36;;;;;;;15.35;12.48;;;;;;;;;;5073781;28;20025;-61
2023/04/08 03:54:02;;;;;;;14.10;12.65;;;;;;;;;;5074361;28;20036;-61
2023/04/08 03:56:27;;;;;;;13.55;11.98;;;;;;;;;;5073928;28;20382;-61
2023/04/08 03:58:52;;;;;;;15.88;13.30;;;;;;;;;;5074272;28;20027;-61
2023/04/08 04:01:18;;;;;;;14.65;12.07;;;;;;;;;;5056838;28;20344;-61
2023/04/08 04:03:43;;;;;;;13.23;10.95;;;;;;;;;;5074285;28;20111;-61
2023/04/08 04:06:09;;;;;;;15.30;11.48;;;;;;;;;;5073696;28;20446;-61
2023/04/08 04:08:34;;;;;;;15.82;13.10;;;;;;;;;;5073918;28;20174;-61
2023/04/08 04:10:59;;;;;;;15.02;11.52;;;;;;;;;;5074140;28;20039;-61
2023/04/08 04:13:24;;;;;;;14.50;11.98;;;;;;;;;;5073613;28;20023;-61
2023/04/08 04:15:50;;;;;;;15.07;12.43;;;;;;;;;;5073557;28;20064;-61
2023/04/08 04:18:15;;;;;;;14.05;12.02;;;;;;;;;;5074128;28;20023;-61
2023/04/08 04:20:41;;;;;;;12.65;10.50;;;;;;;;;;5073577;28;20406;-61
2023/04/08 04:23:07;;;;;;;12.15;10.50;;;;;;;;;;5073336;28;20486;-61
2023/04/08 04:25:32;;;;;;;11.88;10.25;;;;;;;;;;5073752;28;20107;-61
2023/04/08 04:28:00;;;;;;;12.95;11.45;;;;;;;;;;5073499;28;20086;-61
2023/04/08 04:30:26;;;;;;;14.57;11.70;;;;;;;;;;5073931;28;20091;-61
2023/04/08 04:32:52;;;;;;;13.20;11.48;;;;;;;;;;5073343;28;20025;-61
2023/04/08 04:35:17;;;;;;;12.63;11.25;;;;;;;;;;5073414;28;20025;-61
2023/04/08 04:37:42;;;;;;;12.15;10.80;;;;;;;;;;5073611;28;20082;-61
2023/04/08 04:40:08;;;;;;;12.02;10.73;;;;;;;;;;5073350;28;20029;-61
2023/04/08 04:42:33;;;;;;;12.63;11.05;;;;;;;;;;5073864;28;20051;-61
2023/04/08 04:44:59;;;;;;;12.70;11.32;;;;;;;;;;5073550;28;20532;-61
2023/04/08 04:47:24;;;;;;;13.43;11.77;;;;;;;;;;5073300;28;20545;-61
2023/04/08 04:49:50;;;;;;;12.88;11.50;;;;;;;;;;5073507;28;20534;-61
2023/04/08 04:52:15;;;;;;;13.35;11.43;;;;;;;;;;5073423;28;20129;-61
2023/04/08 04:54:40;;;;;;;11.93;10.48;;;;;;;;;;5073214;28;20064;-61
2023/04/08 04:57:06;;;;;;;14.52;12.20;;;;;;;;;;5073173;28;20482;-61
2023/04/08 04:59:31;;;;;;;13.05;11.05;;;;;;;;;;5073421;28;20115;-61
2023/04/08 05:01:56;;;;;;;14.07;11.80;;;;;;;;;;5073128;28;20116;-61
2023/04/08 05:04:22;;;;;;;13.05;10.70;;;;;;;;;;5073060;28;20037;-61
2023/04/08 05:06:48;;;;;;;18.40;13.50;;;;;;;;;;5073675;28;20032;-62
2023/04/08 05:09:13;;;;;;;15.63;12.45;;;;;;;;;;5076792;28;20024;-61
2023/04/08 05:11:38;;;;;;;14.50;12.30;;;;;;;;;;5077000;28;20355;-61
2023/04/08 05:14:04;;;;;;;14.48;12.80;;;;;;;;;;5076771;28;20520;-61
2023/04/08 05:16:29;;;;;;;14.27;12.77;;;;;;;;;;5077014;28;20090;-54
2023/04/08 05:18:54;;;;;;;14.35;12.52;;;;;;;;;;5076680;28;20063;-54
2023/04/08 05:21:20;;;;;;;13.68;11.98;;;;;;;;;;5076633;28;20099;-54
2023/04/08 05:23:45;;;;;;;14.38;12.73;;;;;;;;;;5076605;28;20546;-54
2023/04/08 05:26:10;;;;;;;15.77;12.52;;;;;;;;;;5076541;28;20410;-53
2023/04/08 05:28:37;;;;;;;14.75;13.10;;;;;;;;;;5083877;23;20075;-54
2023/04/08 05:31:02;;;;;;;15.70;12.95;;;;;;;;;;5076668;28;20124;-54
2023/04/08 05:33:28;;;;;;;165.80;81.07;;;;;;;;;;5076681;28;20088;-54
2023/04/08 05:35:53;;;;;;;16.83;13.70;;;;;;;;;;5076361;28;20036;-53
2023/04/08 05:38:19;;;;;;;14.32;12.68;;;;;;;;;;5058501;28;20036;-54
2023/04/08 05:40:44;;;;;;;15.30;13.68;;;;;;;;;;5076561;28;20024;-54
2023/04/08 05:43:09;;;;;;;15.98;14.18;;;;;;;;;;5076216;28;20025;-54
2023/04/08 05:45:35;;;;;;;15.93;13.30;;;;;;;;;;5058183;28;20386;-54
2023/04/08 05:48:00;;;;;;;17.00;14.88;;;;;;;;;;5058485;28;20040;-54
2023/04/08 05:50:26;;;;;;;16.52;13.30;;;;;;;;;;5076291;28;20028;-54
2023/04/08 05:52:51;;;;;;;12.75;10.57;;;;;;;;;;5076322;28;20037;-54
2023/04/08 05:55:16;;;;;;;13.32;11.93;;;;;;;;;;5076288;28;20111;-54
2023/04/08 05:57:42;;;;;;;17.85;15.73;;;;;;;;;;5076262;28;20051;-54
2023/04/08 06:00:08;;;;;;;20.70;18.48;;;;;;;;;;5075866;28;20466;-54
2023/04/08 06:02:35;;;;;;;16.92;15.13;;;;;;;;;;5076670;28;20040;-54
2023/04/08 06:05:01;;;;;;;22.08;18.77;;;;;;;;;;5075884;28;20187;-53
2023/04/08 06:07:27;;;;;;;18.95;16.77;;;;;;;;;;5076062;28;20111;-53
2023/04/08 06:09:52;;;;;;;14.40;12.30;;;;;;;;;;5075746;28;20052;-54
2023/04/08 06:12:18;;;;;;;15.95;14.25;;;;;;;;;;5075932;28;20504;-54
2023/04/08 06:14:43;;;;;;;17.83;15.90;;;;;;;;;;5075967;28;20021;-54
2023/04/08 06:17:08;;;;;;;14.02;12.25;;;;;;;;;;5075629;28;20036;-53
2023/04/08 06:19:34;;;;;;;12.18;10.95;;;;;;;;;;5074560;28;20104;-54
2023/04/08 06:21:59;;;;;;;14.70;12.65;;;;;;;;;;5075821;28;20085;-53
2023/04/08 06:24:26;;;;;;;15.27;13.02;;;;;;;;;;5057502;28;20091;-53
2023/04/08 06:26:52;;;;;;;14.30;12.10;;;;;;;;;;5075402;28;20035;-53
2023/04/08 06:29:18;;;;;;;17.20;15.23;;;;;;;;;;5076058;28;20056;-53
2023/04/08 06:31:43;;;;;;;13.25;11.07;;;;;;;;;;5075489;28;20032;-53
2023/04/08 06:34:09;;;;;;;13.45;12.05;;;;;;;;;;5075292;28;20033;-53
2023/04/08 06:36:35;;;;;;;12.57;10.93;;;;;;;;;;5075487;28;20086;-54
2023/04/08 06:39:01;;;;;;;17.50;13.27;;;;;;;;;;5075483;28;20032;-53
2023/04/08 06:41:26;;;;;;;21.02;14.10;;;;;;;;;;5057177;28;20127;-53
2023/04/08 06:43:59;;;;;;;16.42;13.15;;;;;;;;;;5075050;28;20115;-53
2023/04/08 06:46:25;;;;;;;12.60;10.77;;;;;;;;;;5075282;28;20056;-54
2023/04/08 06:48:51;;;;;;;15.75;11.82;;;;;;;;;;5074981;28;20031;-54
2023/04/08 06:51:16;;;;;;;15.93;13.15;;;;;;;;;;5075396;28;20040;-54
2023/04/08 06:53:42;;;;;;;18.70;11.98;;;;;;;;;;5074867;28;20050;-53
2023/04/08 06:56:07;;;;;;;15.98;12.20;;;;;;;;;;5075110;28;20036;-53
2023/04/08 06:58:32;;;;;;;11.80;10.60;;;;;;;;;;5075014;28;20025;-53
2023/04/08 07:00:58;;;;;;;13.93;11.27;;;;;;;;;;5075014;28;20033;-53
2023/04/08 07:03:24;;;;;;;13.25;11.55;;;;;;;;;;5074626;28;20036;-54
2023/04/08 07:05:49;;;;;;;25.40;22.73;;;;;;;;;;5074735;28;20035;-53
2023/04/08 07:08:15;;;;;;;16.60;14.20;;;;;;;;;;5074586;28;20024;-53
2023/04/08 07:10:40;;;;;;;14.90;12.73;;;;;;;;;;5074481;28;20032;-53
2023/04/08 07:13:06;;;;;;;12.05;10.85;;;;;;;;;;5074801;28;20028;-53
2023/04/08 07:15:31;;;;;;;10.65;9.20;;;;;;;;;;5074496;28;20016;-53
2023/04/08 07:17:57;;;;;;;10.32;9.32;;;;;;;;;;5074427;28;20032;-53
2023/04/08 07:20:22;;;;;;;11.93;10.63;;;;;;;;;;5074372;28;20466;-53
2023/04/08 07:22:48;;;;;;;16.40;12.40;;;;;;;;;;5074598;28;20089;-61
2023/04/08 07:25:14;;;;;;;13.20;11.82;;;;;;;;;;5074273;28;20039;-61
2023/04/08 07:27:40;;;;;;;18.92;15.55;;;;;;;;;;5074342;28;20025;-61
2023/04/08 07:30:13;;;;;;;20.52;16.98;;;;;;;;;;5038417;22;1104215;-55
2023/04/08 07:32:56;;;;;;;12.75;11.30;;;;;;;;;;5041811;23;20394;-61
2023/04/08 07:35:23;;;;;;;16.15;14.45;;;;;;;;;;5082489;22;21124;-54
2023/04/08 07:38:10;;;;;;;19.67;16.10;;;;;;;;;;5101874;22;20129;-61
2023/04/08 07:40:35;;;;;;;35.28;23.88;;;;;;;;;;5062560;22;20407;-61
2023/04/08 07:43:00;;;;;;;72.38;40.97;;;;;;;;;;5036094;28;20025;-61
2023/04/08 07:45:26;;;;;;;41.50;26.95;;;;;;;;;;5053914;28;20017;-62
2023/04/08 07:47:51;;;;;;;62.53;39.78;;;;;;;;;;5053903;28;20112;-61
2023/04/08 07:50:17;;;;;;;84.18;53.70;;;;;;;;;;5053751;28;20035;-61
2023/04/08 07:52:42;;;;;;;27.50;21.42;;;;;;;;;;5053916;28;20048;-61
2023/04/08 07:55:08;;;;;;;19.02;16.58;;;;;;;;;;5053732;28;20040;-62
2023/04/08 07:57:33;;;;;;;25.25;22.05;;;;;;;;;;5053775;28;20036;-61
2023/04/08 07:59:59;;;;;;;38.50;27.42;;;;;;;;;;5053701;28;20032;-61
2023/04/08 08:02:25;;;;;;;21.30;17.27;;;;;;;;;;5053723;28;20486;-61
2023/04/08 08:04:50;;;;;;;30.27;23.55;;;;;;;;;;5053595;28;20040;-62
2023/04/08 08:07:15;;;;;;;32.33;24.13;;;;;;;;;;5053645;28;20045;-61
2023/04/08 08:09:41;;;;;;;12.13;9.82;;;;;;;;;;5053659;28;20032;-61
2023/04/08 08:12:07;;;;;;;12.27;11.10;;;;;;;;;;5035660;28;20399;-62
2023/04/08 08:14:32;;;;;;;34.47;25.58;;;;;;;;;;5053519;28;20426;-61
2023/04/08 08:16:57;;;;;;;34.28;28.83;;;;;;;;;;5053463;28;20021;-61
2023/04/08 08:19:24;;;;;;;29.48;26.45;;;;;;;;;;5053481;28;20025;-61
2023/04/08 08:21:51;;;;;;;16.00;14.50;;;;;;;;;;5053531;28;20519;-61
2023/04/08 08:24:16;;;;;;;15.95;14.27;;;;;;;;;;5035781;28;20068;-61
2023/04/08 08:26:43;;;;;;;13.60;12.15;;;;;;;;;;5053443;28;20029;-61
2023/04/08 08:29:09;;;;;;;14.52;12.43;;;;;;;;;;5053400;28;20025;-61
2023/04/08 08:31:34;;;;;;;12.88;11.25;;;;;;;;;;5053347;28;20383;-61
2023/04/08 08:34:01;;;;;;;13.73;12.15;;;;;;;;;;5053342;28;20458;-61
2023/04/08 08:36:26;;;;;;;12.00;10.80;;;;;;;;;;5053362;28;20020;-61
2023/04/08 08:38:53;;;;;;;10.82;9.70;;;;;;;;;;5053443;28;20029;-61
2023/04/08 08:41:19;;;;;;;13.48;10.35;;;;;;;;;;5053224;28;20399;-61
2023/04/08 08:43:45;;;;;;;13.52;11.80;;;;;;;;;;5056430;28;20036;-61
2023/04/08 08:46:10;;;;;;;12.80;11.13;;;;;;;;;;5057345;28;20032;-61
2023/04/08 08:48:37;;;;;;;12.60;10.85;;;;;;;;;;5057363;28;20112;-61
2023/04/08 08:51:13;;;;;;;15.40;10.80;;;;;;;;;;5057216;28;20475;-61
2023/04/08 08:53:39;;;;;;;13.60;12.20;;;;;;;;;;5057256;28;20486;-61
2023/04/08 08:56:07;;;;;;;11.63;10.38;;;;;;;;;;5057106;28;20025;-61
2023/04/08 08:58:33;;;;;;;13.00;11.63;;;;;;;;;;5057312;28;20033;-61
2023/04/08 09:00:59;;;;;;;13.05;11.20;;;;;;;;;;5039189;28;20112;-61
2023/04/08 09:03:28;;;;;;;16.20;12.48;;;;;;;;;;5039295;28;20483;-61
2023/04/08 09:05:53;;;;;;;15.68;12.32;;;;;;;;;;5039036;28;20029;-61
2023/04/08 09:08:32;;;;;;;13.93;12.23;;;;;;;;;;5056919;28;20086;-61
2023/04/08 09:11:15;;;;;;;11.75;10.55;;;;;;;;;;5056789;28;20033;-61
2023/04/08 09:13:40;;;;;;;13.82;12.30;;;;;;;;;;5056862;28;20021;-61
2023/04/08 09:16:10;;;;;;;15.38;12.93;;;;;;;;;;5056775;28;20577;-61
2023/04/08 09:18:40;;;;;;;14.15;12.57;;;;;;;;;;5056743;28;20032;-61
2023/04/08 09:21:06;;;;;;;14.32;12.20;;;;;;;;;;5056783;28;20122;-61
2023/04/08 09:23:37;;;;;;;14.10;12.07;;;;;;;;;;5056606;28;20044;-61
2023/04/08 09:26:06;;;;;;;16.70;14.63;;;;;;;;;;5056539;28;20471;-61
2023/04/08 09:28:32;;;;;;;15.63;12.63;;;;;;;;;;5056553;28;20082;-61
2023/04/08 09:30:58;;;;;;;14.38;12.57;;;;;;;;;;5056393;28;20447;-61
2023/04/08 09:33:29;;;;;;;14.07;11.50;;;;;;;;;;5056410;28;20029;-61
2023/04/08 09:35:55;;;;;;;13.15;11.80;;;;;;;;;;5056446;28;20032;-61
2023/04/08 09:38:20;;;;;;;14.85;12.27;;;;;;;;;;5056490;28;20009;-61
2023/04/08 09:40:46;;;;;;;15.35;12.07;;;;;;;;;;5056305;28;20098;-61
2023/04/08 09:43:21;;;;;;;12.23;10.95;;;;;;;;;;5056310;28;20040;-61
2023/04/08 09:45:47;;;;;;;13.30;11.90;;;;;;;;;;5075325;23;20110;-61
2023/04/08 09:48:15;;;;;;;14.88;11.63;;;;;;;;;;5083481;23;20060;-53
2023/04/08 09:50:42;;;;;;;70.25;40.47;;;;;;;;;;5058055;28;20056;-53
2023/04/08 09:53:19;;;;;;;25.15;18.42;;;;;;;;;;5057837;28;20123;-53
2023/04/08 09:55:49;;;;;;;99.68;63.72;;;;;;;;;;5076021;28;20538;-54
2023/04/08 09:58:15;;;;;;;47.75;33.35;;;;;;;;;;5076010;28;20031;-53
2023/04/08 10:00:49;;;;;;;50.95;35.45;;;;;;;;;;5076071;28;20036;-53
2023/04/08 10:03:23;;;;;;;22.13;18.10;;;;;;;;;;5057882;28;20074;-53
2023/04/08 10:05:49;;;;;;;32.63;25.77;;;;;;;;;;5075960;28;20039;-53
2023/04/08 10:08:15;;;;;;;24.10;21.38;;;;;;;;;;5076050;28;20032;-53
2023/04/08 10:10:41;;;;;;;63.85;52.28;;;;;;;;;;5075661;28;20047;-54
2023/04/08 10:13:06;;;;;;;21.00;18.70;;;;;;;;;;5075690;28;20039;-53
2023/04/08 10:15:32;;;;;;;40.55;34.22;;;;;;;;;;5075936;28;20566;-54
2023/04/08 10:18:04;;;;;;;18.23;16.35;;;;;;;;;;5057608;28;20033;-53
2023/04/08 10:20:32;;;;;;;16.83;15.18;;;;;;;;;;5076024;28;20363;-53
2023/04/08 10:22:58;;;;;;;15.05;12.52;;;;;;;;;;5075576;28;20025;-53
2023/04/08 10:25:34;;;;;;;24.70;21.17;;;;;;;;;;5075523;28;20111;-53
2023/04/08 10:28:21;;;;;;;38.40;28.98;;;;;;;;;;5057421;28;20387;-53
2023/04/08 10:30:46;;;;;;;13.73;12.02;;;;;;;;;;5058967;28;20041;-53
2023/04/08 10:33:20;;;;;;;32.25;27.63;;;;;;;;;;5075240;28;20348;-53
2023/04/08 10:35:52;;;;;;;32.55;28.70;;;;;;;;;;5075228;28;20044;-53
2023/04/08 10:38:18;;;;;;;147.15;106.13;;;;;;;;;;5075107;28;20485;-53
2023/04/08 10:40:43;;;;;;;25.80;20.35;;;;;;;;;;5075136;28;20032;-53
2023/04/08 10:43:10;;;;;;;136.35;121.82;;;;;;;;;;5075094;28;20028;-53
2023/04/08 10:45:35;;;;;;;26.80;24.02;;;;;;;;;;5075086;28;20486;-53
2023/04/08 10:48:12;;;;;;;34.88;27.55;;;;;;;;;;5074782;28;20047;-53
2023/04/08 10:50:38;;;;;;;44.38;25.73;;;;;;;;;;5074901;28;20541;-53
2023/04/08 10:53:05;;;;;;;17.30;15.20;;;;;;;;;;5075180;28;20063;-54
2023/04/08 10:55:31;;;;;;;20.05;17.95;;;;;;;;;;5075068;28;20390;-53
2023/04/08 10:58:06;;;;;;;23.42;17.65;;;;;;;;;;5074784;28;20028;-53
2023/04/08 11:00:35;;;;;;;22.85;19.48;;;;;;;;;;5074908;28;20032;-51
2023/04/08 11:03:01;;;;;;;22.90;18.88;;;;;;;;;;5074768;28;20063;-51
2023/04/08 11:05:27;;;;;;;32.78;27.02;;;;;;;;;;5073981;28;20021;-51
2023/04/08 11:07:52;;;;;;;40.30;29.98;;;;;;;;;;5074523;28;20044;-50
2023/04/08 11:10:17;;;;;;;37.40;30.33;;;;;;;;;;5074393;28;20050;-51
2023/04/08 11:12:43;;;;;;;64.03;49.55;;;;;;;;;;5056738;28;20498;-51
2023/04/08 11:15:08;;;;;;;28.25;24.58;;;;;;;;;;5074556;28;20029;-51
2023/04/08 11:17:35;;;;;;;16.75;13.43;;;;;;;;;;5074550;28;20103;-51
2023/04/08 11:20:04;;;;;;;17.17;13.95;;;;;;;;;;5074586;28;20052;-54
2023/04/08 11:22:32;;;;;;;15.80;11.80;;;;;;;;;;5074313;28;20032;-54
2023/04/08 11:24:58;;;;;;;14.45;12.00;;;;;;;;;;5074273;28;20119;-53
2023/04/08 11:27:24;;;;;;;15.02;13.10;;;;;;;;;;5074256;28;20056;-54
2023/04/08 11:29:50;;;;;;;14.65;13.10;;;;;;;;;;5074222;28;20070;-53
2023/04/08 11:32:16;;;;;;;16.15;13.13;;;;;;;;;;5074113;28;20429;-54
2023/04/08 11:34:41;;;;;;;13.45;11.32;;;;;;;;;;5074101;28;20059;-54
2023/04/08 11:37:07;;;;;;;15.23;12.88;;;;;;;;;;5074136;28;20024;-54
2023/04/08 11:39:33;;;;;;;14.93;12.30;;;;;;;;;;5074143;28;20024;-54
2023/04/08 11:41:58;;;;;;;13.57;11.80;;;;;;;;;;5074246;28;20356;-53
2023/04/08 11:44:30;;;;;;;13.93;12.40;;;;;;;;;;5073973;28;20029;-53
2023/04/08 11:46:57;;;;;;;14.05;11.80;;;;;;;;;;5056361;28;20036;-53
2023/04/08 11:49:22;;;;;;;13.27;11.45;;;;;;;;;;5074181;28;20368;-54
2023/04/08 11:51:58;;;;;;;14.75;12.05;;;;;;;;;;5055743;28;20039;-54
2023/04/08 11:54:27;;;;;;;17.77;14.68;;;;;;;;;;5055758;28;20043;-53
2023/04/08 11:56:53;;;;;;;20.17;16.55;;;;;;;;;;5073812;28;20028;-53
2023/04/08 11:59:18;;;;;;;28.33;24.13;;;;;;;;;;5073716;28;20021;-53
2023/04/08 12:01:43;;;;;;;16.95;13.27;;;;;;;;;;5073753;28;20458;-53
2023/04/08 12:04:09;;;;;;;160.05;53.58;;;;;;;;;;5073674;28;20028;-53
2023/04/08 12:06:36;;;;;;;29.42;18.92;;;;;;;;;;5073669;28;20082;-53
2023/04/08 12:09:01;;;;;;;36.95;26.33;;;;;;;;;;5073615;28;20167;-54
2023/04/08 12:11:27;;;;;;;31.50;20.38;;;;;;;;;;5073769;28;20115;-53
2023/04/08 12:13:52;;;;;;;84.65;35.47;;;;;;;;;;5073738;28;20035;-53
2023/04/08 12:16:18;;;;;;;59.35;32.35;;;;;;;;;;5073489;28;20025;-54
2023/04/08 12:18:43;;;;;;;25.00;21.75;;;;;;;;;;5073576;28;20021;-54
2023/04/08 12:21:10;;;;;;;33.25;27.55;;;;;;;;;;5055567;28;20039;-53
2023/04/08 12:23:35;;;;;;;182.00;68.53;;;;;;;;;;5073519;28;20028;-53
2023/04/08 12:26:01;;;;;;;29.90;19.10;;;;;;;;;;5073491;28;20435;-54
2023/04/08 12:28:26;;;;;;;252.85;107.95;;;;;;;;;;5073572;28;20028;-54
2023/04/08 12:30:52;;;;;;;122.47;53.53;;;;;;;;;;5055402;28;20059;-54
2023/04/08 12:33:17;;;;;;;135.20;68.32;;;;;;;;;;5073483;28;20166;-54
2023/04/08 12:35:43;;;;;;;60.65;31.27;;;;;;;;;;5055773;28;20135;-54
2023/04/08 12:38:08;;;;;;;19.20;15.85;;;;;;;;;;5055401;28;20463;-53
2023/04/08 12:40:34;;;;;;;48.30;28.45;;;;;;;;;;5073475;28;20029;-54
2023/04/08 12:42:59;;;;;;;24.00;18.40;;;;;;;;;;5055374;28;20016;-54
2023/04/08 12:45:25;;;;;;;102.13;58.05;;;;;;;;;;5055374;28;20024;-53
2023/04/08 12:47:51;;;;;;;39.22;25.48;;;;;;;;;;5073184;28;20548;-54
2023/04/08 12:50:16;;;;;;;20.75;15.27;;;;;;;;;;5073278;28;20021;-54
2023/04/08 12:52:42;;;;;;;19.23;15.98;;;;;;;;;;5055411;28;20028;-53
2023/04/08 12:55:07;;;;;;;20.70;16.42;;;;;;;;;;5073422;28;20479;-54
2023/04/08 12:57:33;;;;;;;19.23;16.17;;;;;;;;;;5073292;28;20048;-54
2023/04/08 12:59:58;;;;;;;29.50;22.85;;;;;;;;;;5073405;28;20025;-53
2023/04/08 13:02:25;;;;;;;25.77;18.15;;;;;;;;;;5055369;28;20032;-54
2023/04/08 13:04:52;;;;;;;23.63;18.70;;;;;;;;;;5073248;28;20539;-54
2023/04/08 13:07:17;;;;;;;28.60;21.80;;;;;;;;;;5073120;28;20078;-54
2023/04/08 13:09:43;;;;;;;25.98;19.92;;;;;;;;;;5073109;28;20032;-53
2023/04/08 13:12:10;;;;;;;37.10;27.90;;;;;;;;;;5072958;28;20385;-53
2023/04/08 13:14:36;;;;;;;33.65;23.65;;;;;;;;;;5073176;28;20158;-53
2023/04/08 13:17:02;;;;;;;28.23;21.35;;;;;;;;;;5073254;28;20100;-54
2023/04/08 13:19:27;;;;;;;36.38;26.45;;;;;;;;;;5055321;28;20024;-54
2023/04/08 13:21:53;;;;;;;48.10;35.25;;;;;;;;;;5072916;28;20025;-53
2023/04/08 13:24:18;;;;;;;50.25;32.67;;;;;;;;;;5055301;28;20113;-54
2023/04/08 13:26:43;;;;;;;26.33;20.17;;;;;;;;;;5072871;28;20075;-54
2023/04/08 13:29:08;;;;;;;27.23;21.33;;;;;;;;;;5074455;28;20029;-55
2023/04/08 13:31:35;;;;;;;23.23;19.20;;;;;;;;;;5076389;28;20436;-53
2023/04/08 13:34:01;;;;;;;37.25;26.58;;;;;;;;;;5076471;28;20044;-53
2023/04/08 13:36:27;;;;;;;54.47;34.10;;;;;;;;;;5076401;28;20415;-54
2023/04/08 13:38:53;;;;;;;38.92;27.92;;;;;;;;;;5058342;28;20103;-54
2023/04/08 13:41:19;;;;;;;27.88;18.95;;;;;;;;;;5076257;28;20033;-54
2023/04/08 13:43:45;;;;;;;29.17;22.70;;;;;;;;;;5076264;28;20017;-53
2023/04/08 13:46:10;;;;;;;36.58;29.38;;;;;;;;;;5076282;28;20048;-54
2023/04/08 13:48:36;;;;;;;30.75;22.55;;;;;;;;;;5076125;28;20064;-54
2023/04/08 13:51:01;;;;;;;39.88;29.25;;;;;;;;;;5058525;28;20379;-53
2023/04/08 13:53:26;;;;;;;43.35;30.73;;;;;;;;;;5076052;28;20029;-54
2023/04/08 13:55:54;;;;;;;40.45;28.63;;;;;;;;;;5076128;28;20036;-54
2023/04/08 13:58:23;;;;;;;26.42;19.35;;;;;;;;;;5076119;28;20106;-54
2023/04/08 14:00:50;;;;;;;30.73;23.83;;;;;;;;;;5076159;28;20095;-61
2023/04/08 14:03:15;;;;;;;32.58;25.00;;;;;;;;;;5076056;28;20486;-53
2023/04/08 14:05:40;;;;;;;28.95;22.95;;;;;;;;;;5075868;28;20033;-61
2023/04/08 14:08:06;;;;;;;21.98;17.85;;;;;;;;;;5075831;28;20039;-53
2023/04/08 14:10:32;;;;;;;32.38;26.25;;;;;;;;;;5075741;28;20035;-54
2023/04/08 14:12:57;;;;;;;19.70;17.15;;;;;;;;;;5057908;28;20025;-53